sensor_id;sensor_type;location;lat;lon;timestamp;temperature;humidity
31639;DHT22;18248;51.522;7.020;2023-04-25T00:01:29;8.40;99.90
31639;DHT22;18248;51.522;7.020;2023-04-25T00:04:28;8.40;99.90
31639;DHT22;18248;51.522;7.020;2023-04-25T00:07:27;8.40;99.90
31639;DHT22;18248;51.522;7.020;2023-04-25T00:10:26;8.40;99.90
31639;DHT22;18248;51.522;7.020;2023-04-25T00:13:25;8.40;99.90
31639;DHT22;18248;51.522;7.020;2023-04-25T00:16:24;8.40;99.90
31639;DHT22;18248;51.522;7.020;2023-04-25T00:19:23;8.40;99.90
31639;DHT22;18248;51.522;7.020;2023-04-25T00:22:21;8.40;99.90
31639;DHT22;18248;51.522;7.020;2023-04-25T00:25:20;8.40;99.90
31639;DHT22;18248;51.522;7.020;2023-04-25T00:28:18;8.50;99.90
31639;DHT22;18248;51.522;7.020;2023-04-25T00:31:17;8.40;99.90
31639;DHT22;18248;51.522;7.020;2023-04-25T00:34:17;8.40;99.90
31639;DHT22;18248;51.522;7.020;2023-04-25T00:37:15;8.50;99.90
31639;DHT22;18248;51.522;7.020;2023-04-25T00:40:15;8.50;99.90
31639;DHT22;18248;51.522;7.020;2023-04-25T00:43:13;8.50;99.90
31639;DHT22;18248;51.522;7.020;2023-04-25T00:46:12;8.50;99.90
31639;DHT22;18248;51.522;7.020;2023-04-25T00:49:10;8.50;99.90
31639;DHT22;18248;51.522;7.020;2023-04-25T00:52:13;8.50;99.90
31639;DHT22;18248;51.522;7.020;2023-04-25T00:55:12;8.50;99.90
31639;DHT22;18248;51.522;7.020;2023-04-25T00:58:11;8.50;99.90
31639;DHT22;18248;51.522;7.020;2023-04-25T01:01:11;8.50;99.90
31639;DHT22;18248;51.522;7.020;2023-04-25T01:04:09;8.50;99.90
31639;DHT22;18248;51.522;7.020;2023-04-25T01:07:09;8.50;99.90
31639;DHT22;18248;51.522;7.020;2023-04-25T01:10:08;8.60;99.90
31639;DHT22;18248;51.522;7.020;2023-04-25T01:13:08;8.60;99.90
31639;DHT22;18248;51.522;7.020;2023-04-25T01:16:06;8.60;99.90
31639;DHT22;18248;51.522;7.020;2023-04-25T01:19:09;8.70;99.90
31639;DHT22;18248;51.522;7.020;2023-04-25T01:22:12;8.60;99.90
31639;DHT22;18248;51.522;7.020;2023-04-25T01:25:12;8.60;99.90
31639;DHT22;18248;51.522;7.020;2023-04-25T01:28:11;8.60;99.90
31639;DHT22;18248;51.522;7.020;2023-04-25T01:31:10;8.60;99.90
31639;DHT22;18248;51.522;7.020;2023-04-25T01:34:11;8.60;99.90
31639;DHT22;18248;51.522;7.020;2023-04-25T01:37:11;8.60;99.90
31639;DHT22;18248;51.522;7.020;2023-04-25T01:40:11;8.60;99.90
31639;DHT22;18248;51.522;7.020;2023-04-25T01:43:10;8.50;99.90
31639;DHT22;18248;51.522;7.020;2023-04-25T01:46:11;8.50;99.90
31639;DHT22;18248;51.522;7.020;2023-04-25T01:49:10;8.50;99.90
31639;DHT22;18248;51.522;7.020;2023-04-25T01:52:08;8.50;99.90
31639;DHT22;18248;51.522;7.020;2023-04-25T01:55:08;8.50;99.90
31639;DHT22;18248;51.522;7.020;2023-04-25T01:58:08;8.50;99.90
31639;DHT22;18248;51.522;7.020;2023-04-25T02:01:07;8.50;99.90
31639;DHT22;18248;51.522;7.020;2023-04-25T02:04:06;8.50;99.90
31639;DHT22;18248;51.522;7.020;2023-04-25T02:07:04;8.50;99.90
31639;DHT22;18248;51.522;7.020;2023-04-25T02:10:04;8.40;99.90
31639;DHT22;18248;51.522;7.020;2023-04-25T02:13:02;8.40;99.90
31639;DHT22;18248;51.522;7.020;2023-04-25T02:16:02;8.40;99.90
31639;DHT22;18248;51.522;7.020;2023-04-25T02:19:01;8.40;99.90
31639;DHT22;18248;51.522;7.020;2023-04-25T02:22:00;8.40;99.90
31639;DHT22;18248;51.522;7.020;2023-04-25T02:24:59;8.50;99.90
31639;DHT22;18248;51.522;7.020;2023-04-25T02:27:57;8.50;99.90
31639;DHT22;18248;51.522;7.020;2023-04-25T02:30:56;8.50;99.90
31639;DHT22;18248;51.522;7.020;2023-04-25T02:33:54;8.50;99.90
31639;DHT22;18248;51.522;7.020;2023-04-25T02:36:53;8.40;99.90
31639;DHT22;18248;51.522;7.020;2023-04-25T02:39:51;8.50;99.90
31639;DHT22;18248;51.522;7.020;2023-04-25T02:42:50;8.40;99.90
31639;DHT22;18248;51.522;7.020;2023-04-25T02:45:48;8.40;99.90
31639;DHT22;18248;51.522;7.020;2023-04-25T02:48:47;8.40;99.90
31639;DHT22;18248;51.522;7.020;2023-04-25T02:51:46;8.40;99.90
31639;DHT22;18248;51.522;7.020;2023-04-25T02:54:46;8.40;99.90
31639;DHT22;18248;51.522;7.020;2023-04-25T02:57:44;8.40;99.90
31639;DHT22;18248;51.522;7.020;2023-04-25T03:00:43;8.40;99.90
31639;DHT22;18248;51.522;7.020;2023-04-25T03:03:44;8.40;99.90
31639;DHT22;18248;51.522;7.020;2023-04-25T03:06:44;8.40;99.90
31639;DHT22;18248;51.522;7.020;2023-04-25T03:09:44;8.40;99.90
31639;DHT22;18248;51.522;7.020;2023-04-25T03:12:43;8.30;99.90
31639;DHT22;18248;51.522;7.020;2023-04-25T03:15:41;8.30;99.90
31639;DHT22;18248;51.522;7.020;2023-04-25T03:18:40;8.30;99.90
31639;DHT22;18248;51.522;7.020;2023-04-25T03:21:38;8.30;99.90
31639;DHT22;18248;51.522;7.020;2023-04-25T03:24:37;8.20;99.90
31639;DHT22;18248;51.522;7.020;2023-04-25T03:27:38;8.30;99.90
31639;DHT22;18248;51.522;7.020;2023-04-25T03:30:36;8.20;99.90
31639;DHT22;18248;51.522;7.020;2023-04-25T03:33:35;8.20;99.90
31639;DHT22;18248;51.522;7.020;2023-04-25T03:36:33;8.20;99.90
31639;DHT22;18248;51.522;7.020;2023-04-25T03:39:32;8.20;99.90
31639;DHT22;18248;51.522;7.020;2023-04-25T03:42:30;8.20;99.90
31639;DHT22;18248;51.522;7.020;2023-04-25T03:45:29;8.30;99.90
31639;DHT22;18248;51.522;7.020;2023-04-25T03:48:28;8.20;99.90
31639;DHT22;18248;51.522;7.020;2023-04-25T03:51:26;8.30;99.90
31639;DHT22;18248;51.522;7.020;2023-04-25T03:54:25;8.30;99.90
31639;DHT22;18248;51.522;7.020;2023-04-25T03:57:23;8.30;99.90
31639;DHT22;18248;51.522;7.020;2023-04-25T04:00:22;8.30;99.90
31639;DHT22;18248;51.522;7.020;2023-04-25T04:03:20;8.30;99.90
31639;DHT22;18248;51.522;7.020;2023-04-25T04:06:19;8.30;99.90
31639;DHT22;18248;51.522;7.020;2023-04-25T04:09:19;8.30;99.90
31639;DHT22;18248;51.522;7.020;2023-04-25T04:12:18;8.30;99.90
31639;DHT22;18248;51.522;7.020;2023-04-25T04:15:17;8.20;99.90
31639;DHT22;18248;51.522;7.020;2023-04-25T04:18:15;8.10;99.90
31639;DHT22;18248;51.522;7.020;2023-04-25T04:21:15;8.10;99.90
31639;DHT22;18248;51.522;7.020;2023-04-25T04:24:15;8.10;99.90
31639;DHT22;18248;51.522;7.020;2023-04-25T04:27:15;8.10;99.90
31639;DHT22;18248;51.522;7.020;2023-04-25T04:30:17;8.00;99.90
31639;DHT22;18248;51.522;7.020;2023-04-25T04:33:15;8.00;99.90
31639;DHT22;18248;51.522;7.020;2023-04-25T04:36:14;8.00;99.90
31639;DHT22;18248;51.522;7.020;2023-04-25T04:39:14;8.00;99.90
31639;DHT22;18248;51.522;7.020;2023-04-25T04:42:13;8.00;99.90
31639;DHT22;18248;51.522;7.020;2023-04-25T04:45:11;8.00;99.90
31639;DHT22;18248;51.522;7.020;2023-04-25T04:48:12;8.00;99.90
31639;DHT22;18248;51.522;7.020;2023-04-25T04:51:12;7.90;99.90
31639;DHT22;18248;51.522;7.020;2023-04-25T04:54:13;7.90;99.90
31639;DHT22;18248;51.522;7.020;2023-04-25T04:57:12;8.00;99.90
31639;DHT22;18248;51.522;7.020;2023-04-25T05:00:12;8.00;99.90
31639;DHT22;18248;51.522;7.020;2023-04-25T05:03:12;8.00;99.90
31639;DHT22;18248;51.522;7.020;2023-04-25T05:06:11;8.00;99.90
31639;DHT22;18248;51.522;7.020;2023-04-25T05:09:09;8.10;99.90
31639;DHT22;18248;51.522;7.020;2023-04-25T05:12:08;8.10;99.90
31639;DHT22;18248;51.522;7.020;2023-04-25T05:15:07;8.10;99.90
31639;DHT22;18248;51.522;7.020;2023-04-25T05:18:06;8.10;99.90
31639;DHT22;18248;51.522;7.020;2023-04-25T05:21:04;8.10;99.90
31639;DHT22;18248;51.522;7.020;2023-04-25T05:24:03;8.10;99.90
31639;DHT22;18248;51.522;7.020;2023-04-25T05:27:02;8.10;99.90
31639;DHT22;18248;51.522;7.020;2023-04-25T05:30:00;8.20;99.90
31639;DHT22;18248;51.522;7.020;2023-04-25T05:32:59;8.20;99.90
31639;DHT22;18248;51.522;7.020;2023-04-25T05:35:57;8.20;99.90
31639;DHT22;18248;51.522;7.020;2023-04-25T05:38:57;8.20;99.90
31639;DHT22;18248;51.522;7.020;2023-04-25T05:41:56;8.20;99.90
31639;DHT22;18248;51.522;7.020;2023-04-25T05:44:54;8.30;99.90
31639;DHT22;18248;51.522;7.020;2023-04-25T05:47:53;8.30;99.90
31639;DHT22;18248;51.522;7.020;2023-04-25T05:50:51;8.30;99.90
31639;DHT22;18248;51.522;7.020;2023-04-25T05:53:50;8.30;99.90
31639;DHT22;18248;51.522;7.020;2023-04-25T05:56:49;8.30;99.90
31639;DHT22;18248;51.522;7.020;2023-04-25T05:59:49;8.30;99.90
31639;DHT22;18248;51.522;7.020;2023-04-25T06:02:47;8.30;99.90
31639;DHT22;18248;51.522;7.020;2023-04-25T06:05:46;8.40;99.90
31639;DHT22;18248;51.522;7.020;2023-04-25T06:08:45;8.40;99.90
31639;DHT22;18248;51.522;7.020;2023-04-25T06:11:44;8.50;99.90
31639;DHT22;18248;51.522;7.020;2023-04-25T06:14:43;8.60;99.90
31639;DHT22;18248;51.522;7.020;2023-04-25T06:17:41;8.70;99.90
31639;DHT22;18248;51.522;7.020;2023-04-25T06:20:40;8.90;99.90
31639;DHT22;18248;51.522;7.020;2023-04-25T06:23:38;9.00;99.90
31639;DHT22;18248;51.522;7.020;2023-04-25T06:26:37;9.20;99.90
31639;DHT22;18248;51.522;7.020;2023-04-25T06:29:35;9.20;99.90
31639;DHT22;18248;51.522;7.020;2023-04-25T06:32:34;9.20;99.90
31639;DHT22;18248;51.522;7.020;2023-04-25T06:35:32;9.20;99.90
31639;DHT22;18248;51.522;7.020;2023-04-25T06:38:31;9.30;99.90
31639;DHT22;18248;51.522;7.020;2023-04-25T06:41:29;9.40;99.90
31639;DHT22;18248;51.522;7.020;2023-04-25T06:44:28;9.40;99.90
31639;DHT22;18248;51.522;7.020;2023-04-25T06:47:27;9.30;99.90
31639;DHT22;18248;51.522;7.020;2023-04-25T06:50:26;9.10;99.90
31639;DHT22;18248;51.522;7.020;2023-04-25T06:53:26;8.90;99.90
31639;DHT22;18248;51.522;7.020;2023-04-25T06:56:24;8.80;99.90
31639;DHT22;18248;51.522;7.020;2023-04-25T06:59:23;8.90;99.90
31639;DHT22;18248;51.522;7.020;2023-04-25T07:02:23;8.90;99.90
31639;DHT22;18248;51.522;7.020;2023-04-25T07:05:22;8.90;99.90
31639;DHT22;18248;51.522;7.020;2023-04-25T07:08:20;8.90;99.90
31639;DHT22;18248;51.522;7.020;2023-04-25T07:11:19;9.00;99.90
31639;DHT22;18248;51.522;7.020;2023-04-25T07:14:18;9.00;99.90
31639;DHT22;18248;51.522;7.020;2023-04-25T07:17:16;9.00;99.90
31639;DHT22;18248;51.522;7.020;2023-04-25T07:20:15;9.10;99.90
31639;DHT22;18248;51.522;7.020;2023-04-25T07:23:14;9.10;99.90
31639;DHT22;18248;51.522;7.020;2023-04-25T07:26:13;9.30;99.90
31639;DHT22;18248;51.522;7.020;2023-04-25T07:29:12;9.50;99.90
31639;DHT22;18248;51.522;7.020;2023-04-25T07:32:14;9.50;99.90
31639;DHT22;18248;51.522;7.020;2023-04-25T07:35:13;9.50;99.90
31639;DHT22;18248;51.522;7.020;2023-04-25T07:38:11;9.90;99.90
31639;DHT22;18248;51.522;7.020;2023-04-25T07:41:11;10.50;99.90
31639;DHT22;18248;51.522;7.020;2023-04-25T07:44:10;10.70;99.90
31639;DHT22;18248;51.522;7.020;2023-04-25T07:47:09;10.90;99.90
31639;DHT22;18248;51.522;7.020;2023-04-25T07:50:08;11.10;99.90
31639;DHT22;18248;51.522;7.020;2023-04-25T07:53:07;11.20;99.90
31639;DHT22;18248;51.522;7.020;2023-04-25T07:56:06;11.40;99.90
31639;DHT22;18248;51.522;7.020;2023-04-25T07:59:04;11.70;99.90
31639;DHT22;18248;51.522;7.020;2023-04-25T08:02:03;12.10;99.90
31639;DHT22;18248;51.522;7.020;2023-04-25T08:05:02;12.10;99.90
31639;DHT22;18248;51.522;7.020;2023-04-25T08:08:01;12.80;99.90
31639;DHT22;18248;51.522;7.020;2023-04-25T08:11:00;13.40;99.90
31639;DHT22;18248;51.522;7.020;2023-04-25T08:13:58;13.70;99.90
31639;DHT22;18248;51.522;7.020;2023-04-25T08:16:57;13.40;99.90
31639;DHT22;18248;51.522;7.020;2023-04-25T08:19:56;13.00;99.90
31639;DHT22;18248;51.522;7.020;2023-04-25T08:22:55;12.70;99.90
31639;DHT22;18248;51.522;7.020;2023-04-25T08:25:55;12.50;99.90
31639;DHT22;18248;51.522;7.020;2023-04-25T08:28:53;12.20;99.90
31639;DHT22;18248;51.522;7.020;2023-04-25T08:31:52;12.00;99.90
31639;DHT22;18248;51.522;7.020;2023-04-25T08:34:53;11.90;99.90
31639;DHT22;18248;51.522;7.020;2023-04-25T08:37:55;12.00;99.90
31639;DHT22;18248;51.522;7.020;2023-04-25T08:40:54;12.00;99.90
31639;DHT22;18248;51.522;7.020;2023-04-25T08:43:55;12.20;99.90
31639;DHT22;18248;51.522;7.020;2023-04-25T08:46:55;13.30;99.90
31639;DHT22;18248;51.522;7.020;2023-04-25T08:49:55;13.70;99.90
31639;DHT22;18248;51.522;7.020;2023-04-25T08:52:54;13.70;99.90
31639;DHT22;18248;51.522;7.020;2023-04-25T08:55:56;13.70;99.90
31639;DHT22;18248;51.522;7.020;2023-04-25T08:58:55;13.90;99.90
31639;DHT22;18248;51.522;7.020;2023-04-25T09:01:55;13.80;99.90
31639;DHT22;18248;51.522;7.020;2023-04-25T09:04:54;13.60;99.90
31639;DHT22;18248;51.522;7.020;2023-04-25T09:07:53;13.50;99.90
31639;DHT22;18248;51.522;7.020;2023-04-25T09:10:52;13.20;99.90
31639;DHT22;18248;51.522;7.020;2023-04-25T09:14:11;13.20;99.90
31639;DHT22;18248;51.522;7.020;2023-04-25T09:17:10;13.20;99.90
31639;DHT22;18248;51.522;7.020;2023-04-25T09:20:11;13.20;99.90
31639;DHT22;18248;51.522;7.020;2023-04-25T09:23:12;13.30;99.90
31639;DHT22;18248;51.522;7.020;2023-04-25T09:26:17;13.50;99.90
31639;DHT22;18248;51.522;7.020;2023-04-25T09:29:16;13.50;99.90
31639;DHT22;18248;51.522;7.020;2023-04-25T09:35:26;13.30;99.90
31639;DHT22;18248;51.522;7.020;2023-04-25T09:38:25;13.30;99.90
31639;DHT22;18248;51.522;7.020;2023-04-25T09:41:24;13.30;99.90
31639;DHT22;18248;51.522;7.020;2023-04-25T09:44:23;13.20;99.90
31639;DHT22;18248;51.522;7.020;2023-04-25T09:47:24;13.20;99.90
31639;DHT22;18248;51.522;7.020;2023-04-25T09:50:23;13.50;99.90
31639;DHT22;18248;51.522;7.020;2023-04-25T09:53:23;13.60;99.90
31639;DHT22;18248;51.522;7.020;2023-04-25T09:56:22;13.70;99.90
31639;DHT22;18248;51.522;7.020;2023-04-25T09:59:22;13.90;99.90
31639;DHT22;18248;51.522;7.020;2023-04-25T10:02:27;14.20;99.90
31639;DHT22;18248;51.522;7.020;2023-04-25T10:05:27;14.30;99.90
31639;DHT22;18248;51.522;7.020;2023-04-25T10:08:36;14.20;99.90
31639;DHT22;18248;51.522;7.020;2023-04-25T10:11:35;13.80;99.90
31639;DHT22;18248;51.522;7.020;2023-04-25T10:14:34;13.50;99.90
31639;DHT22;18248;51.522;7.020;2023-04-25T10:17:34;13.30;99.90
31639;DHT22;18248;51.522;7.020;2023-04-25T10:20:33;13.00;99.90
31639;DHT22;18248;51.522;7.020;2023-04-25T10:23:32;13.00;99.90
31639;DHT22;18248;51.522;7.020;2023-04-25T10:26:32;13.00;99.90
31639;DHT22;18248;51.522;7.020;2023-04-25T10:29:32;12.90;99.90
31639;DHT22;18248;51.522;7.020;2023-04-25T10:32:31;12.90;99.90
31639;DHT22;18248;51.522;7.020;2023-04-25T10:35:31;12.70;99.90
31639;DHT22;18248;51.522;7.020;2023-04-25T10:38:32;12.60;99.90
31639;DHT22;18248;51.522;7.020;2023-04-25T10:41:32;12.50;99.90
31639;DHT22;18248;51.522;7.020;2023-04-25T10:45:01;12.40;99.90
31639;DHT22;18248;51.522;7.020;2023-04-25T10:48:01;12.10;99.90
31639;DHT22;18248;51.522;7.020;2023-04-25T10:51:09;11.90;99.90
31639;DHT22;18248;51.522;7.020;2023-04-25T10:54:08;11.70;99.90
31639;DHT22;18248;51.522;7.020;2023-04-25T10:57:07;11.50;99.90
31639;DHT22;18248;51.522;7.020;2023-04-25T11:03:08;11.10;99.90
31639;DHT22;18248;51.522;7.020;2023-04-25T11:06:22;11.00;99.90
31639;DHT22;18248;51.522;7.020;2023-04-25T11:09:23;11.00;99.90
31639;DHT22;18248;51.522;7.020;2023-04-25T11:12:24;11.00;99.90
31639;DHT22;18248;51.522;7.020;2023-04-25T11:15:23;11.10;99.90
31639;DHT22;18248;51.522;7.020;2023-04-25T11:18:25;11.10;99.90
31639;DHT22;18248;51.522;7.020;2023-04-25T11:21:27;11.10;99.90
31639;DHT22;18248;51.522;7.020;2023-04-25T11:24:27;11.30;99.90
31639;DHT22;18248;51.522;7.020;2023-04-25T11:27:26;11.50;99.90
31639;DHT22;18248;51.522;7.020;2023-04-25T11:30:26;11.80;99.90
31639;DHT22;18248;51.522;7.020;2023-04-25T11:33:25;12.10;99.90
31639;DHT22;18248;51.522;7.020;2023-04-25T11:36:25;12.30;99.90
31639;DHT22;18248;51.522;7.020;2023-04-25T11:39:25;12.60;99.90
31639;DHT22;18248;51.522;7.020;2023-04-25T11:42:28;12.90;99.90
31639;DHT22;18248;51.522;7.020;2023-04-25T11:45:28;13.10;99.90
31639;DHT22;18248;51.522;7.020;2023-04-25T11:48:39;13.40;99.90
31639;DHT22;18248;51.522;7.020;2023-04-25T11:51:42;13.70;99.90
31639;DHT22;18248;51.522;7.020;2023-04-25T11:54:44;13.80;99.90
31639;DHT22;18248;51.522;7.020;2023-04-25T11:57:44;13.90;99.90
31639;DHT22;18248;51.522;7.020;2023-04-25T12:00:43;13.80;99.90
31639;DHT22;18248;51.522;7.020;2023-04-25T12:03:46;13.50;99.90
31639;DHT22;18248;51.522;7.020;2023-04-25T12:06:46;13.30;99.90
31639;DHT22;18248;51.522;7.020;2023-04-25T12:09:51;13.20;99.90
31639;DHT22;18248;51.522;7.020;2023-04-25T12:12:51;13.30;99.90
31639;DHT22;18248;51.522;7.020;2023-04-25T12:15:50;13.30;99.90
31639;DHT22;18248;51.522;7.020;2023-04-25T12:18:51;13.30;99.90
31639;DHT22;18248;51.522;7.020;2023-04-25T12:21:51;13.30;99.90
31639;DHT22;18248;51.522;7.020;2023-04-25T12:24:50;13.40;99.90
31639;DHT22;18248;51.522;7.020;2023-04-25T12:27:48;13.70;99.90
31639;DHT22;18248;51.522;7.020;2023-04-25T12:31:01;14.00;99.90
31639;DHT22;18248;51.522;7.020;2023-04-25T12:34:01;14.10;99.90
31639;DHT22;18248;51.522;7.020;2023-04-25T12:37:00;14.00;99.90
31639;DHT22;18248;51.522;7.020;2023-04-25T12:39:59;13.70;99.90
31639;DHT22;18248;51.522;7.020;2023-04-25T12:42:57;13.50;99.90
31639;DHT22;18248;51.522;7.020;2023-04-25T12:45:56;13.30;99.90
31639;DHT22;18248;51.522;7.020;2023-04-25T12:48:55;13.10;99.90
31639;DHT22;18248;51.522;7.020;2023-04-25T12:51:54;12.80;99.90
31639;DHT22;18248;51.522;7.020;2023-04-25T12:54:52;12.60;99.90
31639;DHT22;18248;51.522;7.020;2023-04-25T12:57:51;12.60;99.90
31639;DHT22;18248;51.522;7.020;2023-04-25T13:00:50;12.60;99.90
31639;DHT22;18248;51.522;7.020;2023-04-25T13:03:49;12.60;99.90
31639;DHT22;18248;51.522;7.020;2023-04-25T13:06:48;12.60;99.90
31639;DHT22;18248;51.522;7.020;2023-04-25T13:09:46;12.60;99.90
31639;DHT22;18248;51.522;7.020;2023-04-25T13:12:45;12.50;99.90
31639;DHT22;18248;51.522;7.020;2023-04-25T13:15:44;12.30;99.90
31639;DHT22;18248;51.522;7.020;2023-04-25T13:18:43;12.20;99.90
31639;DHT22;18248;51.522;7.020;2023-04-25T13:21:41;12.00;99.90
31639;DHT22;18248;51.522;7.020;2023-04-25T13:24:40;11.90;99.90
31639;DHT22;18248;51.522;7.020;2023-04-25T13:27:38;11.90;99.90
31639;DHT22;18248;51.522;7.020;2023-04-25T13:30:39;11.90;99.90
31639;DHT22;18248;51.522;7.020;2023-04-25T13:33:39;12.10;99.90
31639;DHT22;18248;51.522;7.020;2023-04-25T13:36:38;12.20;99.90
31639;DHT22;18248;51.522;7.020;2023-04-25T13:39:36;12.30;99.90
31639;DHT22;18248;51.522;7.020;2023-04-25T13:42:38;12.40;99.90
31639;DHT22;18248;51.522;7.020;2023-04-25T13:45:37;12.70;99.90
31639;DHT22;18248;51.522;7.020;2023-04-25T13:48:36;12.90;99.90
31639;DHT22;18248;51.522;7.020;2023-04-25T13:51:34;13.10;99.90
31639;DHT22;18248;51.522;7.020;2023-04-25T13:54:34;13.40;99.90
31639;DHT22;18248;51.522;7.020;2023-04-25T13:57:34;13.60;99.90
31639;DHT22;18248;51.522;7.020;2023-04-25T14:00:36;13.70;99.90
31639;DHT22;18248;51.522;7.020;2023-04-25T14:03:36;13.80;99.90
31639;DHT22;18248;51.522;7.020;2023-04-25T14:06:35;14.00;99.90
31639;DHT22;18248;51.522;7.020;2023-04-25T14:09:34;14.20;99.90
31639;DHT22;18248;51.522;7.020;2023-04-25T14:12:32;14.30;99.90
31639;DHT22;18248;51.522;7.020;2023-04-25T14:15:32;14.50;99.90
31639;DHT22;18248;51.522;7.020;2023-04-25T14:18:31;14.50;99.40
31639;DHT22;18248;51.522;7.020;2023-04-25T14:21:30;14.60;97.90
31639;DHT22;18248;51.522;7.020;2023-04-25T14:24:30;14.50;96.40
31639;DHT22;18248;51.522;7.020;2023-04-25T14:27:29;14.70;96.80
31639;DHT22;18248;51.522;7.020;2023-04-25T14:30:28;14.60;96.60
31639;DHT22;18248;51.522;7.020;2023-04-25T14:33:26;14.70;96.00
31639;DHT22;18248;51.522;7.020;2023-04-25T14:36:25;14.60;95.40
31639;DHT22;18248;51.522;7.020;2023-04-25T14:39:24;14.30;94.30
31639;DHT22;18248;51.522;7.020;2023-04-25T14:42:23;14.10;95.10
31639;DHT22;18248;51.522;7.020;2023-04-25T14:45:21;14.00;95.70
31639;DHT22;18248;51.522;7.020;2023-04-25T14:48:20;14.00;96.60
31639;DHT22;18248;51.522;7.020;2023-04-25T14:51:19;13.90;99.00
31639;DHT22;18248;51.522;7.020;2023-04-25T14:54:17;13.70;99.90
31639;DHT22;18248;51.522;7.020;2023-04-25T14:57:16;13.50;99.90
31639;DHT22;18248;51.522;7.020;2023-04-25T15:00:15;13.40;99.90
31639;DHT22;18248;51.522;7.020;2023-04-25T15:03:16;13.40;99.90
31639;DHT22;18248;51.522;7.020;2023-04-25T15:06:15;13.50;99.90
31639;DHT22;18248;51.522;7.020;2023-04-25T15:09:13;13.80;99.90
31639;DHT22;18248;51.522;7.020;2023-04-25T15:12:12;14.10;99.90
31639;DHT22;18248;51.522;7.020;2023-04-25T15:15:11;14.30;99.90
31639;DHT22;18248;51.522;7.020;2023-04-25T15:18:12;14.40;99.90
31639;DHT22;18248;51.522;7.020;2023-04-25T15:21:10;14.50;99.90
31639;DHT22;18248;51.522;7.020;2023-04-25T15:24:09;14.60;99.90
31639;DHT22;18248;51.522;7.020;2023-04-25T15:27:09;14.50;99.80
31639;DHT22;18248;51.522;7.020;2023-04-25T15:30:10;14.60;98.80
31639;DHT22;18248;51.522;7.020;2023-04-25T15:33:13;14.50;99.20
31639;DHT22;18248;51.522;7.020;2023-04-25T15:36:12;14.60;98.60
31639;DHT22;18248;51.522;7.020;2023-04-25T15:39:11;14.50;98.70
31639;DHT22;18248;51.522;7.020;2023-04-25T15:42:11;14.50;98.00
31639;DHT22;18248;51.522;7.020;2023-04-25T15:45:10;14.60;97.20
31639;DHT22;18248;51.522;7.020;2023-04-25T15:48:09;14.50;97.00
31639;DHT22;18248;51.522;7.020;2023-04-25T15:51:08;14.50;96.40
31639;DHT22;18248;51.522;7.020;2023-04-25T15:54:07;14.60;96.00
31639;DHT22;18248;51.522;7.020;2023-04-25T15:57:06;14.40;96.20
31639;DHT22;18248;51.522;7.020;2023-04-25T16:00:07;14.40;96.80
31639;DHT22;18248;51.522;7.020;2023-04-25T16:03:08;14.30;96.70
31639;DHT22;18248;51.522;7.020;2023-04-25T16:06:07;14.20;96.40
31639;DHT22;18248;51.522;7.020;2023-04-25T16:09:06;14.00;96.60
31639;DHT22;18248;51.522;7.020;2023-04-25T16:12:05;14.00;97.30
31639;DHT22;18248;51.522;7.020;2023-04-25T16:15:04;13.90;96.90
31639;DHT22;18248;51.522;7.020;2023-04-25T16:18:03;13.80;96.90
31639;DHT22;18248;51.522;7.020;2023-04-25T16:21:02;13.70;96.70
31639;DHT22;18248;51.522;7.020;2023-04-25T16:24:02;13.60;96.60
31639;DHT22;18248;51.522;7.020;2023-04-25T16:27:01;13.50;96.70
31639;DHT22;18248;51.522;7.020;2023-04-25T16:30:01;13.60;97.50
31639;DHT22;18248;51.522;7.020;2023-04-25T16:33:00;13.70;97.30
31639;DHT22;18248;51.522;7.020;2023-04-25T16:35:58;13.60;97.10
31639;DHT22;18248;51.522;7.020;2023-04-25T16:38:57;13.40;97.20
31639;DHT22;18248;51.522;7.020;2023-04-25T16:41:58;13.20;98.00
31639;DHT22;18248;51.522;7.020;2023-04-25T16:44:56;13.00;98.80
31639;DHT22;18248;51.522;7.020;2023-04-25T16:47:55;12.80;99.30
31639;DHT22;18248;51.522;7.020;2023-04-25T16:50:53;12.80;99.90
31639;DHT22;18248;51.522;7.020;2023-04-25T16:53:52;12.70;99.90
31639;DHT22;18248;51.522;7.020;2023-04-25T16:56:52;12.70;99.90
31639;DHT22;18248;51.522;7.020;2023-04-25T16:59:52;12.50;99.90
31639;DHT22;18248;51.522;7.020;2023-04-25T17:02:50;12.40;99.90
31639;DHT22;18248;51.522;7.020;2023-04-25T17:05:54;12.40;99.90
31639;DHT22;18248;51.522;7.020;2023-04-25T17:08:58;12.30;99.90
31639;DHT22;18248;51.522;7.020;2023-04-25T17:11:59;12.40;99.90
31639;DHT22;18248;51.522;7.020;2023-04-25T17:14:59;12.50;99.90
31639;DHT22;18248;51.522;7.020;2023-04-25T17:17:58;12.60;99.90
31639;DHT22;18248;51.522;7.020;2023-04-25T17:21:00;12.60;99.90
31639;DHT22;18248;51.522;7.020;2023-04-25T17:23:59;12.60;99.90
31639;DHT22;18248;51.522;7.020;2023-04-25T17:26:57;12.50;99.90
31639;DHT22;18248;51.522;7.020;2023-04-25T17:29:56;12.50;99.90
31639;DHT22;18248;51.522;7.020;2023-04-25T17:32:54;12.30;99.80
31639;DHT22;18248;51.522;7.020;2023-04-25T17:35:53;12.10;99.90
31639;DHT22;18248;51.522;7.020;2023-04-25T17:38:52;12.10;99.90
31639;DHT22;18248;51.522;7.020;2023-04-25T17:41:51;12.00;99.90
31639;DHT22;18248;51.522;7.020;2023-04-25T17:44:51;11.90;99.90
31639;DHT22;18248;51.522;7.020;2023-04-25T17:47:52;11.90;99.90
31639;DHT22;18248;51.522;7.020;2023-04-25T17:50:50;11.80;99.90
31639;DHT22;18248;51.522;7.020;2023-04-25T17:53:49;11.80;99.90
31639;DHT22;18248;51.522;7.020;2023-04-25T17:56:49;11.70;99.90
31639;DHT22;18248;51.522;7.020;2023-04-25T17:59:48;11.70;99.90
31639;DHT22;18248;51.522;7.020;2023-04-25T18:02:47;11.60;99.90
31639;DHT22;18248;51.522;7.020;2023-04-25T18:05:48;11.60;99.90
31639;DHT22;18248;51.522;7.020;2023-04-25T18:08:46;11.60;99.90
31639;DHT22;18248;51.522;7.020;2023-04-25T18:11:46;11.50;99.90
31639;DHT22;18248;51.522;7.020;2023-04-25T18:14:44;11.40;99.90
31639;DHT22;18248;51.522;7.020;2023-04-25T18:17:43;11.30;99.90
31639;DHT22;18248;51.522;7.020;2023-04-25T18:20:42;11.20;99.90
31639;DHT22;18248;51.522;7.020;2023-04-25T18:23:40;11.10;99.90
31639;DHT22;18248;51.522;7.020;2023-04-25T18:26:39;11.10;99.90
31639;DHT22;18248;51.522;7.020;2023-04-25T18:29:41;11.00;99.90
31639;DHT22;18248;51.522;7.020;2023-04-25T18:32:41;11.00;99.90
31639;DHT22;18248;51.522;7.020;2023-04-25T18:35:40;10.90;99.90
31639;DHT22;18248;51.522;7.020;2023-04-25T18:38:40;10.90;99.90
31639;DHT22;18248;51.522;7.020;2023-04-25T18:41:38;10.90;99.90
31639;DHT22;18248;51.522;7.020;2023-04-25T18:44:37;10.80;99.90
31639;DHT22;18248;51.522;7.020;2023-04-25T18:47:39;10.70;99.90
31639;DHT22;18248;51.522;7.020;2023-04-25T18:50:38;10.70;99.90
31639;DHT22;18248;51.522;7.020;2023-04-25T18:53:40;10.70;99.90
31639;DHT22;18248;51.522;7.020;2023-04-25T18:56:42;10.60;99.90
31639;DHT22;18248;51.522;7.020;2023-04-25T18:59:42;10.50;99.90
31639;DHT22;18248;51.522;7.020;2023-04-25T19:02:41;10.40;99.90
31639;DHT22;18248;51.522;7.020;2023-04-25T19:05:40;10.30;99.90
31639;DHT22;18248;51.522;7.020;2023-04-25T19:08:38;10.30;99.90